Time;durP1;ratioP1;P1;durP2;ratioP2;P2;SDS_P1;SDS_P2;PMS_P1;PMS_P2;Temp;Humidity;BMP_temperature;BMP_pressure;BME280_temperature;BME280_humidity;BME280_pressure;Samples;Min_cycle;Max_cycle;Signal;HPM_P1;HPM_P2
2023/03/18 00:00:26;;;;;;;0.73;0.68;;;;;;;29.08;45.37;98441.91;7388558;19;20488;-80
2023/03/18 00:02:52;;;;;;;1.40;0.63;;;;;;;29.19;44.91;98452.56;7391949;19;20594;-81
2023/03/18 00:05:19;;;;;;;1.52;0.25;;;;;;;29.58;44.13;98447.38;7390886;19;20021;-81
2023/03/18 00:07:46;;;;;;;0.40;0.40;;;;;;;29.84;44.08;98445.78;7390059;19;20070;-80
2023/03/18 00:10:12;;;;;;;3.00;0.57;;;;;;;30.22;42.97;98449.75;7389123;19;20080;-81
2023/03/18 00:12:40;;;;;;;1.55;0.90;;;;;;;30.28;42.76;98446.41;7392307;19;20023;-80
2023/03/18 00:15:09;;;;;;;4.88;1.02;;;;;;;30.61;42.30;98449.41;7388510;19;20082;-81
2023/03/18 00:17:36;;;;;;;2.08;0.57;;;;;;;30.53;41.96;98449.06;7389467;19;20042;-79
2023/03/18 00:20:05;;;;;;;1.77;0.90;;;;;;;30.71;41.43;98455.63;7390479;19;20464;-79
2023/03/18 00:22:36;;;;;;;0.85;0.25;;;;;;;30.56;41.86;98456.38;7390644;19;20026;-80
2023/03/18 00:25:05;;;;;;;1.65;0.95;;;;;;;30.52;41.35;98459.06;7391143;19;20464;-79
2023/03/18 00:27:32;;;;;;;0.35;0.30;;;;;;;30.46;41.78;98455.91;7388956;19;20014;-80
2023/03/18 00:29:59;;;;;;;0.65;0.35;;;;;;;30.27;42.01;98462.19;7389439;19;20050;-81
2023/03/18 00:32:26;;;;;;;4.32;0.52;;;;;;;30.25;42.05;98459.22;7388925;19;20487;-80
2023/03/18 00:34:55;;;;;;;4.30;1.65;;;;;;;30.37;41.51;98465.53;7388195;19;20023;-79
2023/03/18 00:37:29;;;;;;;1.17;0.85;;;;;;;30.32;41.47;98458.16;7389492;19;20472;-78
2023/03/18 00:40:05;;;;;;;0.82;0.40;;;;;;;30.35;41.87;98456.81;7393190;19;20013;-82
2023/03/18 00:42:38;;;;;;;10.68;0.80;;;;;;;30.41;41.56;98459.97;7392448;19;20026;-80
2023/03/18 00:45:06;;;;;;;0.60;0.57;;;;;;;30.28;41.65;98457.91;7389394;19;20354;-80
2023/03/18 00:47:34;;;;;;;4.53;0.77;;;;;;;30.52;41.30;98461.94;7389975;19;20014;-78
2023/03/18 00:50:03;;;;;;;3.80;0.52;;;;;;;30.64;41.45;98471.13;7389314;19;20017;-81
2023/03/18 00:52:29;;;;;;;0.65;0.55;;;;;;;30.57;41.29;98461.47;7387367;19;20044;-81
2023/03/18 00:54:56;;;;;;;6.60;0.52;;;;;;;30.22;41.45;98460.50;7386977;19;20476;-80
2023/03/18 00:57:23;;;;;;;7.53;0.80;;;;;;;30.15;41.64;98468.09;7385651;19;20469;-79
2023/03/18 00:59:50;;;;;;;0.68;0.68;;;;;;;29.96;41.74;98462.84;7384630;19;20014;-81
2023/03/18 01:02:18;;;;;;;1.08;0.90;;;;;;;29.89;42.04;98458.19;7383928;19;20068;-80
2023/03/18 01:04:45;;;;;;;0.20;0.20;;;;;;;29.91;41.93;98464.78;7388166;19;20079;-81
2023/03/18 01:07:12;;;;;;;1.00;0.90;;;;;;;30.06;41.81;98459.75;7392603;19;20007;-80
2023/03/18 01:09:39;;;;;;;0.47;0.20;;;;;;;29.90;41.69;98451.09;7391613;19;20015;-81
2023/03/18 01:12:10;;;;;;;2.33;0.45;;;;;;;29.62;42.49;98464.03;7387172;19;20022;-79
2023/03/18 01:14:37;;;;;;;0.55;0.28;;;;;;;29.60;42.55;98464.69;7388491;19;20031;-80
2023/03/18 01:17:05;;;;;;;1.52;0.25;;;;;;;29.43;42.48;98468.13;7388185;19;20066;-80
2023/03/18 01:19:32;;;;;;;10.23;0.90;;;;;;;17.75;98.78;98491.44;7393052;19;20011;-79
2023/03/18 01:22:00;;;;;;;0.50;0.50;;;;;;;27.87;54.36;98468.94;7387930;19;20091;-79
2023/03/18 01:24:27;;;;;;;0.32;0.32;;;;;;;29.30;48.79;98466.03;7390589;19;20370;-80
2023/03/18 01:26:54;;;;;;;0.98;0.45;;;;;;;29.59;46.73;98468.91;7387623;19;20017;-80
2023/03/18 01:29:22;;;;;;;1.17;1.02;;;;;;;29.76;45.92;98465.50;7393190;19;20021;-79
2023/03/18 01:31:50;;;;;;;0.13;0.13;;;;;;;30.02;45.19;98453.81;7393699;19;20022;-79
2023/03/18 01:34:17;;;;;;;1.20;0.60;;;;;;;30.12;44.29;98460.03;7399630;19;20014;-79
2023/03/18 01:36:50;;;;;;;0.10;0.10;;;;;;;30.07;44.16;98459.09;7397841;19;20014;-80
2023/03/18 01:39:19;;;;;;;3.38;0.52;;;;;;;30.09;43.82;98453.44;7394976;19;20019;-80
2023/03/18 01:41:45;;;;;;;3.83;0.85;;;;;;;30.03;43.50;98455.28;7393162;19;20014;-81
2023/03/18 01:44:20;;;;;;;0.82;0.68;;;;;;;30.19;43.08;98459.66;7398657;19;20091;-80
2023/03/18 01:46:50;;;;;;;5.05;0.80;;;;;;;30.30;43.45;98455.88;7393915;19;20014;-80
2023/03/18 01:49:51;;;;;;;1.10;0.35;;;;;;;30.26;42.63;98458.56;7396114;19;20014;-79
2023/03/18 01:52:22;;;;;;;1.27;0.68;;;;;;;30.17;42.88;98450.22;7389244;19;20014;-79
2023/03/18 01:54:55;;;;;;;3.53;0.57;;;;;;;30.28;42.75;98447.16;7394279;19;20018;-80
2023/03/18 01:57:22;;;;;;;0.73;0.50;;;;;;;30.28;42.22;98447.16;7395119;19;20031;-81
2023/03/18 01:59:52;;;;;;;0.60;0.60;;;;;;;30.31;42.03;98443.03;7394742;19;20390;-79
2023/03/18 02:02:19;;;;;;;1.33;1.23;;;;;;;30.54;41.77;98439.78;7393294;19;20074;-80
2023/03/18 02:04:50;;;;;;;0.90;0.55;;;;;;;30.47;41.72;98449.50;7394535;19;20024;-80
2023/03/18 02:07:28;;;;;;;0.40;0.40;;;;;;;30.23;42.25;98436.88;7395428;19;20127;-79
2023/03/18 02:09:58;;;;;;;4.43;1.10;;;;;;;30.23;41.94;98444.75;7393820;19;20021;-79
2023/03/18 02:12:28;;;;;;;0.40;0.20;;;;;;;30.33;41.52;98436.63;7392678;19;20019;-79
2023/03/18 02:15:00;;;;;;;0.10;0.10;;;;;;;29.91;42.38;98438.94;7394573;19;20078;-80
2023/03/18 02:17:31;;;;;;;0.50;0.38;;;;;;;29.98;42.13;98440.72;7394478;19;20018;-79
2023/03/18 02:20:07;;;;;;;;;;;;;;;29.59;42.46;98437.34;7394810;19;20010;-80
2023/03/18 02:23:02;;;;;;;7.18;1.05;;;;;;;30.16;41.91;98428.63;7394215;19;20297;-79
2023/03/18 02:25:43;;;;;;;0.77;0.30;;;;;;;30.11;41.97;98444.91;7394223;19;20010;-79
2023/03/18 02:28:13;;;;;;;3.30;1.10;;;;;;;29.38;42.93;98443.47;7393615;19;20484;-79
2023/03/18 02:30:52;;;;;;;3.97;1.50;;;;;;;29.45;42.72;98442.41;7391774;19;20015;-79
2023/03/18 02:33:21;;;;;;;1.35;0.73;;;;;;;29.62;42.54;98441.81;7394085;19;20089;-79
2023/03/18 02:35:54;;;;;;;1.85;0.40;;;;;;;29.14;43.23;98445.09;7392098;19;20031;-78
2023/03/18 02:38:20;;;;;;;0.38;0.38;;;;;;;29.51;42.73;98436.97;7391204;19;20015;-79
2023/03/18 02:40:48;;;;;;;1.42;0.50;;;;;;;29.74;42.49;98435.94;7391357;19;20014;-79
2023/03/18 02:43:21;;;;;;;;;;;;;;;29.82;42.33;98439.94;7396474;19;20111;-79
2023/03/18 02:46:11;;;;;;;3.00;1.17;;;;;;;29.73;41.97;98440.94;7393393;19;20655;-79
2023/03/18 02:48:42;;;;;;;1.75;0.73;;;;;;;29.64;42.22;98439.03;7393887;19;20010;-79
2023/03/18 02:51:09;;;;;;;0.45;0.10;;;;;;;29.74;42.18;98442.44;7387024;19;20014;-79
2023/03/18 02:53:36;;;;;;;0.68;0.68;;;;;;;29.76;41.83;98445.41;7390036;19;20070;-79
2023/03/18 02:56:04;;;;;;;4.03;0.77;;;;;;;29.79;42.09;98449.13;7386832;19;20019;-78
2023/03/18 02:58:31;;;;;;;0.20;0.20;;;;;;;29.87;41.90;98443.75;7387165;19;20015;-79
2023/03/18 03:01:00;;;;;;;0.47;0.47;;;;;;;30.14;41.38;98448.63;7390661;19;20669;-78
2023/03/18 03:03:27;;;;;;;6.82;0.90;;;;;;;30.16;41.57;98445.84;7394928;19;20011;-78
2023/03/18 03:05:55;;;;;;;0.90;0.77;;;;;;;30.03;41.29;98449.53;7391588;19;20030;-78
2023/03/18 03:08:23;;;;;;;1.05;0.30;;;;;;;30.17;41.18;98447.34;7392177;19;20033;-78
2023/03/18 03:10:51;;;;;;;0.93;0.77;;;;;;;30.14;41.17;98440.00;7390441;19;20021;-78
2023/03/18 03:13:20;;;;;;;0.68;0.60;;;;;;;30.20;40.80;98446.78;7392421;19;20055;-78
2023/03/18 03:15:46;;;;;;;1.55;0.40;;;;;;;30.26;40.50;98449.19;7390910;19;20010;-78
2023/03/18 03:18:12;;;;;;;0.30;0.30;;;;;;;30.23;40.68;98450.50;7392128;19;20018;-79
2023/03/18 03:20:39;;;;;;;2.33;0.30;;;;;;;30.24;40.85;98446.97;7389982;19;20029;-78
2023/03/18 03:23:07;;;;;;;1.15;0.70;;;;;;;30.23;40.91;98454.13;7394366;19;20019;-78
2023/03/18 03:25:34;;;;;;;0.45;0.45;;;;;;;30.12;40.73;98445.66;7391792;19;20386;-78
2023/03/18 03:28:03;;;;;;;0.28;0.28;;;;;;;27.88;43.78;98456.84;7391233;19;20010;-78
2023/03/18 03:30:29;;;;;;;0.55;0.55;;;;;;;29.19;42.00;98458.28;7389107;19;20357;-78
2023/03/18 03:32:56;;;;;;;1.27;0.32;;;;;;;29.27;42.12;98458.69;7391294;19;20412;-78
2023/03/18 03:35:23;;;;;;;1.63;0.30;;;;;;;29.63;41.95;98457.63;7389268;19;20548;-78
2023/03/18 03:37:50;;;;;;;0.77;0.47;;;;;;;29.75;41.61;98455.41;7389386;19;20484;-78
2023/03/18 03:40:19;;;;;;;0.57;0.57;;;;;;;29.70;41.61;98459.44;7388551;19;20018;-79
2023/03/18 03:42:46;;;;;;;1.23;0.52;;;;;;;29.71;41.35;98460.19;7389886;19;20074;-78
2023/03/18 03:45:14;;;;;;;2.10;1.20;;;;;;;29.46;41.78;98463.97;7391914;19;20494;-78
2023/03/18 03:47:42;;;;;;;1.05;0.47;;;;;;;29.60;41.42;98456.06;7392125;19;20022;-79
2023/03/18 03:50:10;;;;;;;0.75;0.45;;;;;;;29.61;41.55;98460.41;7388292;19;20052;-79
2023/03/18 03:52:37;;;;;;;0.25;0.20;;;;;;;29.69;41.28;98462.94;7389493;19;20106;-78
2023/03/18 03:55:06;;;;;;;0.75;0.75;;;;;;;29.80;40.83;98468.56;7389971;19;20015;-78
2023/03/18 03:57:34;;;;;;;1.67;1.10;;;;;;;29.81;41.01;98464.31;7390445;19;20362;-78
2023/03/18 04:00:01;;;;;;;1.27;0.32;;;;;;;29.60;40.90;98464.69;7391009;19;20015;-78
2023/03/18 04:02:48;;;;;;;1.83;0.60;;;;;;;29.58;40.90;98470.31;7390519;19;20025;-78
2023/03/18 04:05:18;;;;;;;0.50;0.40;;;;;;;29.34;40.99;98457.63;7390690;19;20452;-78
2023/03/18 04:07:46;;;;;;;6.10;0.88;;;;;;;29.45;40.70;98462.50;7390294;19;20018;-78
2023/03/18 04:10:15;;;;;;;0.30;0.30;;;;;;;29.45;40.19;98462.50;7389706;19;20018;-78
2023/03/18 04:12:44;;;;;;;1.00;0.52;;;;;;;29.52;40.10;98460.66;7389184;19;20378;-78
2023/03/18 04:15:13;;;;;;;0.10;0.10;;;;;;;29.51;40.10;98459.91;7389808;19;20015;-78
2023/03/18 04:17:41;;;;;;;0.52;0.50;;;;;;;29.54;39.83;98464.34;7390324;19;20081;-78
2023/03/18 04:20:08;;;;;;;1.63;0.25;;;;;;;29.52;39.87;98470.00;7389834;19;20090;-78
2023/03/18 04:22:35;;;;;;;1.38;0.68;;;;;;;29.45;39.88;98468.22;7390920;19;20046;-79
2023/03/18 04:25:04;;;;;;;1.17;0.75;;;;;;;29.45;39.62;98468.22;7389350;19;20039;-79
2023/03/18 04:27:31;;;;;;;0.60;0.55;;;;;;;29.57;39.48;98468.81;7389790;19;20015;-78
2023/03/18 04:30:00;;;;;;;0.35;0.32;;;;;;;29.48;39.77;98466.94;7387824;19;20040;-78
2023/03/18 04:32:35;;;;;;;0.60;0.45;;;;;;;29.48;39.44;98471.91;7387774;19;20019;-78
2023/03/18 04:35:02;;;;;;;0.40;0.40;;;;;;;29.56;39.30;98478.81;7389507;19;20017;-78
2023/03/18 04:37:28;;;;;;;1.80;0.50;;;;;;;29.47;39.54;98482.66;7389638;19;20030;-78
2023/03/18 04:39:57;;;;;;;5.65;0.57;;;;;;;29.10;40.06;98480.03;7390190;19;20026;-79
2023/03/18 04:42:23;;;;;;;0.38;0.38;;;;;;;29.37;39.52;98485.00;7388375;19;20010;-79
2023/03/18 04:44:50;;;;;;;0.10;0.10;;;;;;;29.48;39.58;98481.28;7388707;19;20372;-78
2023/03/18 04:47:17;;;;;;;2.55;0.85;;;;;;;29.52;39.57;98486.50;7388131;19;20011;-78
2023/03/18 04:49:44;;;;;;;1.95;0.55;;;;;;;29.55;39.20;98494.53;7388681;19;20010;-78
2023/03/18 04:52:12;;;;;;;1.08;1.00;;;;;;;29.41;39.65;98490.94;7387833;19;20021;-78
2023/03/18 04:54:39;;;;;;;0.55;0.55;;;;;;;29.00;40.17;98498.84;7388976;19;20015;-78
2023/03/18 04:57:06;;;;;;;0.45;0.20;;;;;;;29.10;39.78;98497.25;7388591;19;20394;-78
2023/03/18 04:59:36;;;;;;;2.55;0.95;;;;;;;29.32;39.64;98500.53;7388938;19;20043;-78
2023/03/18 05:02:05;;;;;;;1.73;0.38;;;;;;;29.32;39.42;98500.53;7389386;19;20015;-78
2023/03/18 05:04:32;;;;;;;0.20;0.20;;;;;;;29.49;39.03;98490.63;7395964;19;20493;-78
2023/03/18 05:07:00;;;;;;;2.45;0.50;;;;;;;29.48;38.67;98495.63;7395959;19;20353;-79
2023/03/18 05:09:33;;;;;;;2.67;0.80;;;;;;;29.27;39.03;98507.44;7395688;19;20014;-78
2023/03/18 05:11:59;;;;;;;0.90;0.77;;;;;;;29.17;38.76;98506.94;7393839;19;20055;-78
2023/03/18 05:14:35;;;;;;;0.35;0.30;;;;;;;29.19;38.76;98509.91;7396158;19;20585;-79
2023/03/18 05:17:03;;;;;;;0.20;0.10;;;;;;;29.20;39.00;98511.38;7396044;19;20026;-79
2023/03/18 05:19:31;;;;;;;0.30;0.30;;;;;;;29.18;39.22;98514.13;7399812;19;20048;-78
2023/03/18 05:22:30;;;;;;;1.95;0.47;;;;;;;28.90;39.12;98521.97;7394475;19;20010;-78
2023/03/18 05:25:10;;;;;;;0.20;0.20;;;;;;;29.20;39.11;98517.13;7396445;19;20025;-78
2023/03/18 05:27:37;;;;;;;3.90;0.40;;;;;;;29.48;39.13;98523.56;7396263;19;20018;-78
2023/03/18 05:30:11;;;;;;;0.77;0.55;;;;;;;29.44;38.70;98520.50;7396757;19;20011;-78
2023/03/18 05:32:42;;;;;;;4.13;0.50;;;;;;;29.39;38.97;98528.13;7393077;19;20010;-79
2023/03/18 05:35:10;;;;;;;0.28;0.28;;;;;;;29.37;38.87;98530.91;7396064;19;20014;-78
2023/03/18 05:37:45;;;;;;;3.92;0.40;;;;;;;29.27;38.71;98527.53;7395831;19;20012;-78
2023/03/18 05:40:13;;;;;;;0.98;0.60;;;;;;;29.39;39.15;98528.13;7394710;19;20096;-78
2023/03/18 05:42:44;;;;;;;0.75;0.75;;;;;;;29.46;39.12;98532.06;7394018;19;20011;-79
2023/03/18 05:45:11;;;;;;;0.93;0.47;;;;;;;29.36;39.08;98529.44;7394139;19;20019;-78
2023/03/18 05:47:47;;;;;;;0.20;0.20;;;;;;;29.43;39.11;98527.63;7394882;19;20019;-78
2023/03/18 05:50:26;;;;;;;0.40;0.35;;;;;;;29.41;39.07;98524.66;7394399;19;20475;-78
2023/03/18 05:52:53;;;;;;;0.10;0.10;;;;;;;29.26;39.16;98526.03;7396477;19;20037;-78
2023/03/18 05:55:22;;;;;;;1.63;0.77;;;;;;;29.07;39.39;98532.16;7394398;19;20078;-78
2023/03/18 05:57:49;;;;;;;0.47;0.40;;;;;;;28.49;40.09;98529.72;7394401;19;20021;-78
2023/03/18 06:00:17;;;;;;;0.70;0.70;;;;;;;27.66;40.91;98536.44;7394457;19;20027;-78
2023/03/18 06:02:47;;;;;;;1.65;0.52;;;;;;;28.81;39.79;98527.91;7392714;19;20093;-78
2023/03/18 06:05:14;;;;;;;0.82;0.60;;;;;;;28.90;39.48;98533.44;7392989;19;20042;-78
2023/03/18 06:07:41;;;;;;;14.55;0.80;;;;;;;29.36;38.97;98528.69;7393039;19;20025;-78
2023/03/18 06:10:09;;;;;;;0.43;0.28;;;;;;;29.45;38.43;98525.59;7391443;19;20373;-78
2023/03/18 06:12:35;;;;;;;0.43;0.40;;;;;;;29.48;38.61;98535.03;7392143;19;20025;-78
2023/03/18 06:15:05;;;;;;;3.75;0.65;;;;;;;29.49;38.98;98530.78;7391490;19;20022;-78
2023/03/18 06:17:32;;;;;;;0.43;0.17;;;;;;;29.11;39.41;98532.38;7393813;19;20343;-78
2023/03/18 06:19:59;;;;;;;0.55;0.32;;;;;;;29.43;39.17;98539.84;7393014;19;20022;-78
2023/03/18 06:22:26;;;;;;;1.80;0.50;;;;;;;28.86;39.41;98541.06;7391428;19;20010;-78
2023/03/18 06:24:53;;;;;;;2.03;0.55;;;;;;;29.25;39.22;98547.50;7393692;19;20014;-78
2023/03/18 06:27:19;;;;;;;4.78;0.63;;;;;;;29.35;39.49;98550.88;7392922;19;20015;-79
2023/03/18 06:29:52;;;;;;;6.13;0.52;;;;;;;29.39;39.17;98551.09;7393080;19;20461;-78
2023/03/18 06:32:19;;;;;;;5.53;1.58;;;;;;;29.49;39.39;98551.63;7391327;19;20010;-78
2023/03/18 06:34:45;;;;;;;0.57;0.30;;;;;;;29.31;39.56;98556.41;7392215;19;20369;-78
2023/03/18 06:37:11;;;;;;;0.90;0.45;;;;;;;29.48;39.28;98558.75;7391641;19;20026;-79
2023/03/18 06:39:38;;;;;;;5.85;2.33;;;;;;;29.54;39.44;98561.91;7391495;19;20014;-79
2023/03/18 06:42:07;;;;;;;7.03;1.60;;;;;;;29.53;39.63;98563.31;7389866;19;20082;-78
2023/03/18 06:44:51;;;;;;;3.72;1.92;;;;;;;29.47;39.75;98565.88;7392921;19;20354;-79
2023/03/18 06:47:28;;;;;;;1.80;0.75;;;;;;;29.77;39.57;98573.19;7391426;19;20440;-78
2023/03/18 06:49:56;;;;;;;3.50;1.02;;;;;;;29.73;39.75;98567.22;7391282;19;20414;-79
2023/03/18 06:52:33;;;;;;;2.15;0.93;;;;;;;29.65;39.55;98569.66;7391741;19;20021;-79
2023/03/18 06:55:06;;;;;;;2.42;0.55;;;;;;;29.56;39.49;98570.63;7392060;19;20095;-79
2023/03/18 06:57:35;;;;;;;0.95;0.57;;;;;;;29.26;40.31;98571.91;7391761;19;20042;-78
2023/03/18 07:00:03;;;;;;;3.63;1.55;;;;;;;29.24;40.13;98574.69;7392181;19;20048;-78
2023/03/18 07:02:30;;;;;;;2.55;0.47;;;;;;;29.43;40.19;98585.75;7390890;19;20014;-78
2023/03/18 07:04:59;;;;;;;2.55;0.73;;;;;;;29.57;40.35;98572.13;7391116;19;20056;-78
2023/03/18 07:07:26;;;;;;;4.07;1.25;;;;;;;20.45;52.04;98593.41;7390882;19;20021;-79
2023/03/18 07:09:53;;;;;;;1.20;0.40;;;;;;;22.77;80.18;98590.16;7391466;19;20101;-80
2023/03/18 07:12:20;;;;;;;1.67;0.80;;;;;;;24.89;63.63;98581.94;7389824;19;20010;-79
2023/03/18 07:14:47;;;;;;;0.95;0.70;;;;;;;25.41;60.54;98579.88;7390586;19;20015;-80
2023/03/18 07:17:13;;;;;;;4.20;0.93;;;;;;;25.48;59.72;98590.38;7395202;19;20017;-80
2023/03/18 07:19:40;;;;;;;3.55;1.38;;;;;;;25.52;59.16;98584.19;7391281;19;20337;-78
2023/03/18 07:22:07;;;;;;;4.15;0.40;;;;;;;25.65;58.49;98589.34;7390380;19;20110;-78
2023/03/18 07:24:33;;;;;;;2.33;0.80;;;;;;;25.48;58.19;98583.91;7390852;19;20023;-78
2023/03/18 07:26:59;;;;;;;9.80;1.02;;;;;;;25.45;58.45;98590.81;7391067;19;20022;-78
2023/03/18 07:29:25;;;;;;;7.97;2.30;;;;;;;25.46;57.85;98581.66;7390971;19;20023;-78
2023/03/18 07:31:52;;;;;;;1.55;1.10;;;;;;;25.09;58.92;98586.19;7390739;19;20018;-78
2023/03/18 07:34:20;;;;;;;3.35;2.25;;;;;;;24.00;62.85;98594.63;7395803;19;20017;-78
2023/03/18 07:36:46;;;;;;;3.90;1.42;;;;;;;23.92;64.67;98597.66;7390767;19;20375;-78
2023/03/18 07:39:12;;;;;;;7.03;2.17;;;;;;;23.78;65.68;98596.59;7390702;19;20021;-78
2023/03/18 07:41:39;;;;;;;0.65;0.60;;;;;;;24.34;64.26;98596.44;7389389;19;20093;-78
2023/03/18 07:44:06;;;;;;;1.33;0.30;;;;;;;24.75;63.20;98601.59;7393739;19;20352;-77
2023/03/18 07:46:32;;;;;;;3.53;1.15;;;;;;;25.64;60.68;98607.06;7390454;19;20015;-79
2023/03/18 07:48:59;;;;;;;7.78;1.10;;;;;;;26.49;58.17;98605.63;7393346;19;20039;-78
2023/03/18 07:51:26;;;;;;;3.28;1.15;;;;;;;26.58;57.65;98601.91;7389209;19;20014;-79
2023/03/18 07:53:52;;;;;;;1.27;0.98;;;;;;;26.88;57.00;98603.84;7394328;19;20021;-77
2023/03/18 07:56:19;;;;;;;1.95;0.68;;;;;;;28.23;53.08;98614.16;7390771;19;20014;-79
2023/03/18 07:58:46;;;;;;;2.83;1.38;;;;;;;27.73;52.81;98609.06;7390348;19;20342;-78
2023/03/18 08:01:14;;;;;;;2.55;0.63;;;;;;;27.59;53.03;98617.53;7389242;19;20430;-79
2023/03/18 08:03:42;;;;;;;4.55;1.75;;;;;;;27.52;52.81;98617.81;7393901;19;20038;-78
2023/03/18 08:06:10;;;;;;;0.80;0.65;;;;;;;27.40;52.29;98625.66;7391486;19;20006;-79
2023/03/18 08:08:37;;;;;;;1.10;0.80;;;;;;;27.34;52.61;98623.16;7391136;19;20018;-79
2023/03/18 08:11:03;;;;;;;0.90;0.55;;;;;;;27.35;52.49;98621.03;7387733;19;20018;-78
2023/03/18 08:13:30;;;;;;;4.03;1.23;;;;;;;27.62;51.83;98627.75;7390578;19;20029;-78
2023/03/18 08:15:57;;;;;;;1.95;0.35;;;;;;;27.81;51.30;98629.56;7389126;19;20562;-78
2023/03/18 08:18:23;;;;;;;2.65;0.70;;;;;;;28.00;51.43;98629.31;7391473;19;20046;-78
2023/03/18 08:20:49;;;;;;;1.27;0.52;;;;;;;28.24;50.81;98627.84;7387951;19;20038;-78
2023/03/18 08:23:16;;;;;;;2.78;0.82;;;;;;;28.01;51.35;98630.81;7393179;19;20379;-78
2023/03/18 08:25:45;;;;;;;1.70;0.75;;;;;;;27.85;51.69;98629.09;7388726;19;20006;-78
2023/03/18 08:28:11;;;;;;;1.60;1.10;;;;;;;28.59;50.92;98627.00;7390119;19;20055;-79
2023/03/18 08:30:38;;;;;;;8.98;1.73;;;;;;;28.98;50.27;98627.72;7388788;19;20358;-79
2023/03/18 08:33:04;;;;;;;2.67;1.27;;;;;;;28.82;50.80;98621.13;7390181;19;20082;-78
2023/03/18 08:35:31;;;;;;;2.35;1.08;;;;;;;28.60;50.67;98623.47;7388302;19;20015;-78
2023/03/18 08:37:57;;;;;;;11.38;1.48;;;;;;;28.64;50.68;98617.97;7386461;19;20033;-78
2023/03/18 08:40:24;;;;;;;2.38;1.05;;;;;;;28.68;49.94;98623.19;7387416;19;20741;-78
2023/03/18 08:42:51;;;;;;;1.33;1.23;;;;;;;28.74;48.98;98623.53;7388516;19;20015;-78
2023/03/18 08:45:18;;;;;;;1.65;0.82;;;;;;;28.67;49.13;98615.97;7388354;19;20677;-78
2023/03/18 08:47:45;;;;;;;1.67;1.55;;;;;;;28.85;48.79;98614.09;7390304;19;20010;-79
2023/03/18 08:50:13;;;;;;;3.13;0.93;;;;;;;28.74;48.78;98615.66;7387486;19;20018;-80
2023/03/18 08:52:40;;;;;;;1.60;1.05;;;;;;;28.88;48.44;98621.44;7387742;19;20018;-78
2023/03/18 08:55:07;;;;;;;2.28;1.05;;;;;;;28.88;48.21;98630.78;7389590;19;20426;-78
2023/03/18 08:57:33;;;;;;;7.63;1.65;;;;;;;28.74;48.68;98637.88;7390659;19;20011;-79
2023/03/18 09:00:00;;;;;;;4.30;1.48;;;;;;;28.64;48.99;98628.69;7389329;19;20011;-79
2023/03/18 09:02:26;;;;;;;1.98;1.08;;;;;;;28.80;48.72;98641.06;7386936;19;20019;-79
2023/03/18 09:04:53;;;;;;;6.95;1.08;;;;;;;28.60;48.73;98639.91;7388717;19;20018;-79
2023/03/18 09:07:20;;;;;;;3.70;1.40;;;;;;;28.95;48.85;98641.22;7389248;19;20011;-79
2023/03/18 09:09:46;;;;;;;1.95;1.60;;;;;;;28.83;48.24;98639.78;7388854;19;20011;-79
2023/03/18 09:12:13;;;;;;;9.32;2.88;;;;;;;28.64;48.67;98651.59;7388699;19;20022;-80
2023/03/18 09:14:41;;;;;;;4.90;1.67;;;;;;;28.99;49.09;98640.69;7389105;19;20018;-79
2023/03/18 09:17:07;;;;;;;20.13;4.78;;;;;;;29.36;48.16;98646.28;7389823;19;20021;-80
2023/03/18 09:19:35;;;;;;;7.38;2.13;;;;;;;29.39;47.17;98642.88;7393510;19;20011;-79
2023/03/18 09:22:01;;;;;;;4.38;1.15;;;;;;;29.32;47.11;98651.81;7388746;19;20366;-82
2023/03/18 09:24:28;;;;;;;6.80;2.03;;;;;;;29.11;47.32;98647.06;7389077;19;20062;-79
2023/03/18 09:26:54;;;;;;;3.90;1.08;;;;;;;29.49;47.12;98643.44;7386756;19;20022;-79
2023/03/18 09:29:21;;;;;;;8.38;1.77;;;;;;;29.51;47.28;98640.69;7385997;19;20048;-79
2023/03/18 09:31:47;;;;;;;24.35;3.50;;;;;;;29.59;47.08;98654.69;7383795;19;20014;-80
2023/03/18 09:34:13;;;;;;;3.70;2.00;;;;;;;29.71;46.56;98644.63;7391261;19;20102;-79
2023/03/18 09:36:40;;;;;;;4.07;2.05;;;;;;;29.71;46.24;98644.63;7386286;19;20028;-79
2023/03/18 09:39:07;;;;;;;1.00;0.75;;;;;;;29.98;45.26;98641.72;7386000;19;20021;-79
2023/03/18 09:41:58;;;;;;;6.25;2.40;;;;;;;29.70;46.06;98646.00;7383801;19;20361;-78
2023/03/18 09:44:28;;;;;;;4.35;1.33;;;;;;;29.76;45.95;98645.56;7382813;19;20036;-78
2023/03/18 09:47:22;;;;;;;10.40;2.27;;;;;;;29.74;45.88;98649.09;7382783;19;20011;-78
2023/03/18 09:50:20;;;;;;;5.70;1.95;;;;;;;29.79;45.93;98645.06;7386549;19;20694;-77
2023/03/18 09:52:52;;;;;;;20.83;2.30;;;;;;;29.66;45.52;98647.91;7389144;19;20744;-78
2023/03/18 09:55:45;;;;;;;8.23;2.38;;;;;;;29.45;46.19;98654.72;7390731;19;20500;-79
2023/03/18 09:58:45;;;;;;;5.63;1.75;;;;;;;29.69;45.85;98649.50;7394324;19;20098;-79
2023/03/18 10:01:12;;;;;;;0.68;0.43;;;;;;;29.65;45.63;98652.88;7393483;19;20048;-80
2023/03/18 10:03:42;;;;;;;4.82;2.17;;;;;;;29.57;45.69;98658.22;7396665;19;20019;-79
2023/03/18 10:06:17;;;;;;;2.00;0.73;;;;;;;29.49;46.02;98669.28;7394939;19;20011;-79
2023/03/18 10:09:25;;;;;;;3.50;0.93;;;;;;;29.81;45.13;98670.25;7394482;19;20015;-79
2023/03/18 10:12:00;;;;;;;2.13;1.70;;;;;;;29.78;44.79;98666.53;7391461;19;20022;-79
2023/03/18 10:14:38;;;;;;;1.00;0.63;;;;;;;29.91;45.08;98670.75;7393195;19;20022;-79
2023/03/18 10:17:30;;;;;;;2.80;1.52;;;;;;;29.85;44.70;98664.72;7394203;19;20015;-78
2023/03/18 10:20:04;;;;;;;3.45;2.20;;;;;;;29.91;44.88;98673.63;7394481;19;20030;-79
2023/03/18 10:22:56;;;;;;;1.45;0.57;;;;;;;29.66;44.33;98665.88;7393348;19;20038;-79
2023/03/18 10:25:35;;;;;;;7.43;2.05;;;;;;;29.72;44.45;98671.91;7393386;19;20663;-79
2023/03/18 10:28:07;;;;;;;11.10;1.60;;;;;;;30.06;44.57;98678.00;7392740;19;20022;-79
2023/03/18 10:30:40;;;;;;;2.90;1.23;;;;;;;30.20;44.52;98670.84;7391295;19;20046;-78
2023/03/18 10:33:26;;;;;;;2.40;1.58;;;;;;;30.36;44.73;98673.81;7392638;19;20407;-78
2023/03/18 10:36:04;;;;;;;6.32;2.33;;;;;;;30.55;44.92;98673.31;7390733;19;20018;-78
2023/03/18 10:38:37;;;;;;;3.50;1.95;;;;;;;30.91;44.42;98666.47;7389928;19;20010;-79
2023/03/18 10:44:35;;;;;;;5.47;1.55;;;;;;;30.93;42.81;98677.34;7401872;19;20049;-64
2023/03/18 10:47:17;;;;;;;4.90;0.82;;;;;;;31.00;42.82;98679.84;7394507;19;20483;-65
2023/03/18 10:50:08;;;;;;;1.08;0.55;;;;;;;30.95;42.96;98681.03;7395118;19;20511;-64
2023/03/18 10:52:46;;;;;;;2.35;1.40;;;;;;;31.49;41.62;98682.13;7397582;19;20018;-65
2023/03/18 10:55:16;;;;;;;3.05;1.40;;;;;;;31.72;41.47;98681.75;7395908;19;20014;-65
2023/03/18 10:57:42;;;;;;;0.93;0.40;;;;;;;31.92;40.37;98683.38;7395771;19;20526;-64
2023/03/18 11:00:26;;;;;;;2.58;0.88;;;;;;;32.80;39.52;98679.91;7396812;19;20011;-64
2023/03/18 11:02:54;;;;;;;1.65;1.00;;;;;;;33.80;38.55;98679.47;7398617;19;20021;-64
2023/03/18 11:05:23;;;;;;;1.40;0.80;;;;;;;33.69;37.47;98678.34;7393995;19;20013;-65
2023/03/18 11:07:58;;;;;;;4.40;1.48;;;;;;;33.70;37.58;98674.06;7396488;19;20453;-64
2023/03/18 11:10:29;;;;;;;3.30;1.40;;;;;;;34.13;36.85;98674.19;7395062;19;20015;-64
2023/03/18 11:13:01;;;;;;;3.13;0.47;;;;;;;32.58;37.93;98676.88;7397710;19;20015;-64
2023/03/18 11:15:37;;;;;;;5.22;0.40;;;;;;;32.89;37.60;98676.72;7395780;19;20011;-64
2023/03/18 11:18:04;;;;;;;2.58;0.82;;;;;;;32.65;37.81;98684.38;7397016;19;20010;-64
2023/03/18 11:20:44;;;;;;;1.60;0.90;;;;;;;32.44;38.01;98684.94;7395755;19;20016;-64
2023/03/18 11:23:47;;;;;;;3.65;0.70;;;;;;;32.22;37.70;98681.09;7400097;19;20034;-64
2023/03/18 11:26:27;;;;;;;0.95;0.75;;;;;;;32.45;37.73;98674.88;7396431;19;20017;-64
2023/03/18 11:28:56;;;;;;;0.40;0.30;;;;;;;32.77;37.41;98670.44;7394957;19;20006;-64
2023/03/18 11:31:22;;;;;;;0.65;0.32;;;;;;;32.73;37.45;98676.03;7392747;19;20035;-64
2023/03/18 11:33:49;;;;;;;0.80;0.80;;;;;;;32.54;38.20;98673.06;7398596;19;20052;-64
2023/03/18 11:36:22;;;;;;;0.77;0.10;;;;;;;32.17;37.73;98679.44;7396159;19;20011;-64
2023/03/18 11:39:02;;;;;;;1.00;0.63;;;;;;;32.00;37.69;98680.13;7394740;19;20014;-64
2023/03/18 11:41:29;;;;;;;2.83;0.75;;;;;;;32.28;37.09;98677.72;7394838;19;20463;-64
2023/03/18 11:44:00;;;;;;;0.40;0.32;;;;;;;32.14;37.21;98674.97;7399064;19;20796;-64
2023/03/18 11:46:42;;;;;;;1.17;0.43;;;;;;;32.41;36.54;98680.47;7395293;19;20014;-64
2023/03/18 11:49:22;;;;;;;1.10;0.68;;;;;;;32.52;37.08;98673.75;7397632;19;20049;-64
2023/03/18 11:51:54;;;;;;;3.65;0.47;;;;;;;32.50;36.94;98670.78;7396766;19;20069;-64